Time;durP1;ratioP1;P1;durP2;ratioP2;P2;SDS_P1;SDS_P2;PMS_P1;PMS_P2;Temp;Humidity;BMP_temperature;BMP_pressure;BME280_temperature;BME280_humidity;BME280_pressure;Samples;Min_cycle;Max_cycle;Signal;HPM_P1;HPM_P2
2023/10/01 00:00:48;;;;;;;15.63;11.10;;;;;;;;;;5051708;28;20149;-60
2023/10/01 00:03:14;;;;;;;15.65;11.93;;;;;;;;;;5060615;28;20096;-59
2023/10/01 00:05:40;;;;;;;15.55;12.15;;;;;;;;;;5061315;28;20026;-60
2023/10/01 00:08:08;;;;;;;15.57;12.30;;;;;;;;;;5046647;28;20033;-60
2023/10/01 00:10:34;;;;;;;14.80;11.15;;;;;;;;;;5060413;28;20031;-60
2023/10/01 00:13:01;;;;;;;14.40;11.48;;;;;;;;;;5074578;28;20020;-59
2023/10/01 00:15:27;;;;;;;15.05;10.60;;;;;;;;;;5043991;28;20020;-60
2023/10/01 00:17:53;;;;;;;13.50;11.70;;;;;;;;;;5060231;28;20327;-60
2023/10/01 00:20:27;;;;;;;13.38;11.48;;;;;;;;;;5060912;28;20483;-59
2023/10/01 00:22:56;;;;;;;11.90;10.68;;;;;;;;;;5059808;28;20020;-60
2023/10/01 00:25:23;;;;;;;14.85;11.57;;;;;;;;;;5057786;28;20043;-59
2023/10/01 00:27:49;;;;;;;14.73;12.20;;;;;;;;;;5061779;28;20872;-60
2023/10/01 00:30:14;;;;;;;14.43;11.98;;;;;;;;;;5060998;28;20030;-59
2023/10/01 00:32:40;;;;;;;14.20;11.48;;;;;;;;;;5049118;28;20469;-61
2023/10/01 00:35:10;;;;;;;16.98;11.93;;;;;;;;;;5061223;28;20016;-58
2023/10/01 00:37:36;;;;;;;15.00;11.38;;;;;;;;;;5061082;28;20009;-58
2023/10/01 00:40:08;;;;;;;14.63;12.52;;;;;;;;;;5060622;28;20028;-58
2023/10/01 00:42:34;;;;;;;16.55;12.32;;;;;;;;;;5040798;28;20020;-58
2023/10/01 00:44:59;;;;;;;15.52;12.27;;;;;;;;;;5042730;28;20031;-58
2023/10/01 00:47:26;;;;;;;14.05;12.38;;;;;;;;;;5060437;28;21023;-58
2023/10/01 00:49:52;;;;;;;16.73;12.73;;;;;;;;;;5058883;28;20907;-61
2023/10/01 00:52:23;;;;;;;15.82;12.63;;;;;;;;;;5061842;28;20545;-58
2023/10/01 00:54:48;;;;;;;14.25;11.60;;;;;;;;;;5073678;28;20031;-59
2023/10/01 00:57:16;;;;;;;14.75;11.82;;;;;;;;;;5050335;28;20019;-58
2023/10/01 00:59:43;;;;;;;14.77;12.90;;;;;;;;;;5059788;28;20092;-58
2023/10/01 01:02:09;;;;;;;14.50;11.73;;;;;;;;;;5058478;28;20139;-59
2023/10/01 01:04:42;;;;;;;15.75;11.95;;;;;;;;;;5059075;28;20046;-59
2023/10/01 01:07:15;;;;;;;14.98;11.85;;;;;;;;;;5048590;28;20052;-58
2023/10/01 01:09:41;;;;;;;18.45;12.65;;;;;;;;;;5057473;28;20448;-58
2023/10/01 01:12:07;;;;;;;15.55;12.10;;;;;;;;;;5060354;28;20055;-59
2023/10/01 01:14:33;;;;;;;17.00;11.77;;;;;;;;;;5060841;28;20024;-58
2023/10/01 01:17:01;;;;;;;16.88;12.05;;;;;;;;;;5044602;28;20024;-59
2023/10/01 01:19:29;;;;;;;17.13;12.07;;;;;;;;;;5040341;28;20158;-59
2023/10/01 01:21:55;;;;;;;15.77;12.77;;;;;;;;;;5062289;28;20028;-59
2023/10/01 01:24:20;;;;;;;15.40;12.82;;;;;;;;;;5058658;28;20467;-59
2023/10/01 01:26:51;;;;;;;16.63;12.40;;;;;;;;;;5062518;28;20435;-59
2023/10/01 01:29:17;;;;;;;13.93;11.98;;;;;;;;;;5047162;28;20800;-59
2023/10/01 01:31:45;;;;;;;15.23;12.82;;;;;;;;;;5045857;28;20140;-59
2023/10/01 01:34:13;;;;;;;15.95;12.32;;;;;;;;;;5061302;28;20035;-59
2023/10/01 01:36:39;;;;;;;16.77;12.15;;;;;;;;;;5061623;28;20048;-59
2023/10/01 01:39:27;;;;;;;15.95;11.88;;;;;;;;;;5060669;28;20230;-59
2023/10/01 01:41:54;;;;;;;15.13;12.45;;;;;;;;;;5053249;28;20027;-59
2023/10/01 01:44:23;;;;;;;12.73;11.32;;;;;;;;;;5041214;28;20020;-59
2023/10/01 01:46:48;;;;;;;17.23;12.73;;;;;;;;;;5063315;28;20024;-58
2023/10/01 01:49:18;;;;;;;14.65;12.07;;;;;;;;;;5060602;28;20322;-58
2023/10/01 01:51:56;;;;;;;13.65;11.63;;;;;;;;;;5046196;28;20028;-59
2023/10/01 01:54:23;;;;;;;16.08;12.60;;;;;;;;;;5067426;28;20023;-59
2023/10/01 01:56:51;;;;;;;15.77;11.65;;;;;;;;;;5085357;27;20047;-59
2023/10/01 01:59:21;;;;;;;15.93;11.32;;;;;;;;;;5049085;28;20039;-59
2023/10/01 02:01:46;;;;;;;16.58;11.93;;;;;;;;;;5070943;28;20047;-59
2023/10/01 02:04:12;;;;;;;13.93;11.52;;;;;;;;;;5083968;27;20460;-59
2023/10/01 02:06:37;;;;;;;17.00;12.15;;;;;;;;;;5048600;28;20028;-58
2023/10/01 02:09:12;;;;;;;13.53;12.03;;;;;;;;;;5065530;28;20020;-58
2023/10/01 02:11:37;;;;;;;15.02;12.43;;;;;;;;;;5066696;28;20262;-59
2023/10/01 02:14:05;;;;;;;15.68;12.57;;;;;;;;;;5056779;28;20020;-59
2023/10/01 02:16:36;;;;;;;14.07;12.23;;;;;;;;;;5063361;28;20433;-59
2023/10/01 02:19:17;;;;;;;14.00;12.50;;;;;;;;;;5070125;28;20115;-58
2023/10/01 02:21:43;;;;;;;17.05;12.85;;;;;;;;;;5075580;28;20097;-58
2023/10/01 02:24:17;;;;;;;15.02;12.23;;;;;;;;;;5082253;28;20012;-58
2023/10/01 02:26:46;;;;;;;17.42;12.38;;;;;;;;;;5074142;28;20139;-58
2023/10/01 02:29:14;;;;;;;14.13;12.35;;;;;;;;;;5071657;28;20017;-58
2023/10/01 02:32:04;;;;;;;15.98;13.25;;;;;;;;;;5066041;28;20058;-59
2023/10/01 02:34:29;;;;;;;15.50;12.98;;;;;;;;;;5067177;28;20032;-58
2023/10/01 02:36:55;;;;;;;14.18;12.38;;;;;;;;;;5056356;28;20060;-58
2023/10/01 02:39:21;;;;;;;17.45;13.07;;;;;;;;;;5062911;28;20441;-58
2023/10/01 02:42:09;;;;;;;15.90;12.55;;;;;;;;;;5065131;28;20032;-59
2023/10/01 02:44:41;;;;;;;15.00;13.20;;;;;;;;;;5066712;28;20056;-58
2023/10/01 02:47:16;;;;;;;15.40;13.18;;;;;;;;;;5079109;28;20033;-58
2023/10/01 02:49:49;;;;;;;15.10;12.60;;;;;;;;;;5061056;27;20065;-58
2023/10/01 02:52:15;;;;;;;15.43;12.88;;;;;;;;;;5084736;28;20073;-59
2023/10/01 02:54:43;;;;;;;15.00;13.32;;;;;;;;;;5067257;28;20035;-58
2023/10/01 02:57:23;;;;;;;17.38;13.55;;;;;;;;;;5083044;28;20015;-58
2023/10/01 03:02:37;;;;;;;16.23;13.15;;;;;;;;;;5086665;28;20082;-58
2023/10/01 03:05:05;;;;;;;15.15;13.13;;;;;;;;;;5088287;28;20050;-57
2023/10/01 03:07:36;;;;;;;16.35;13.80;;;;;;;;;;5084490;27;20023;-58
2023/10/01 03:10:11;;;;;;;21.00;13.32;;;;;;;;;;5087992;27;20382;-58
2023/10/01 03:12:40;;;;;;;17.48;13.43;;;;;;;;;;5086119;28;20022;-58
2023/10/01 03:17:45;;;;;;;16.10;12.95;;;;;;;;;;5086925;28;20136;-59
2023/10/01 03:20:19;;;;;;;15.85;13.85;;;;;;;;;;5086428;27;20089;-58
2023/10/01 03:22:52;;;;;;;14.85;13.05;;;;;;;;;;5083676;27;20077;-59
2023/10/01 03:25:28;;;;;;;16.40;13.07;;;;;;;;;;5070742;28;20033;-59
2023/10/01 03:27:58;;;;;;;16.40;13.20;;;;;;;;;;5083990;27;20026;-59
2023/10/01 03:30:23;;;;;;;18.45;13.50;;;;;;;;;;5082647;28;20028;-59
2023/10/01 03:32:51;;;;;;;16.00;13.25;;;;;;;;;;5067167;28;20039;-59
2023/10/01 03:35:20;;;;;;;15.52;11.90;;;;;;;;;;5082400;28;20059;-59
2023/10/01 03:38:08;;;;;;;16.60;13.10;;;;;;;;;;5081822;27;20500;-59
2023/10/01 03:40:36;;;;;;;15.00;12.35;;;;;;;;;;5080718;27;20104;-59
2023/10/01 03:43:04;;;;;;;14.50;12.35;;;;;;;;;;5069725;27;20054;-59
2023/10/01 03:47:58;;;;;;;17.45;13.45;;;;;;;;;;5093087;27;20036;-59
2023/10/01 03:50:26;;;;;;;14.18;12.25;;;;;;;;;;5065161;28;20872;-58
2023/10/01 03:52:54;;;;;;;16.75;12.20;;;;;;;;;;5063958;28;20566;-59
2023/10/01 03:55:27;;;;;;;16.40;13.25;;;;;;;;;;5063494;28;20043;-59
2023/10/01 03:58:38;;;;;;;18.35;13.73;;;;;;;;;;5066028;28;20840;-59
2023/10/01 04:03:04;;;;;;;20.00;13.83;;;;;;;;;;5064305;28;20025;-58
2023/10/01 04:05:37;;;;;;;17.77;12.73;;;;;;;;;;5042519;28;20032;-58
2023/10/01 04:08:11;;;;;;;15.63;12.35;;;;;;;;;;5060386;28;20409;-58
2023/10/01 04:10:38;;;;;;;14.68;11.90;;;;;;;;;;5059365;28;20054;-61
2023/10/01 04:13:13;;;;;;;16.77;12.27;;;;;;;;;;5068064;28;20140;-61
2023/10/01 04:15:46;;;;;;;15.35;12.60;;;;;;;;;;5044090;28;20017;-60
2023/10/01 04:20:49;;;;;;;20.35;13.65;;;;;;;;;;5060858;28;20078;-58
2023/10/01 04:23:23;;;;;;;17.58;12.82;;;;;;;;;;5066875;28;20035;-60
2023/10/01 04:25:51;;;;;;;14.00;11.70;;;;;;;;;;5047690;28;20122;-60
2023/10/01 04:28:18;;;;;;;14.88;11.80;;;;;;;;;;5066844;28;20119;-60
2023/10/01 04:30:44;;;;;;;14.73;11.43;;;;;;;;;;5050200;28;20024;-60
2023/10/01 04:33:22;;;;;;;16.08;12.10;;;;;;;;;;5063497;28;20118;-60
2023/10/01 04:35:58;;;;;;;13.88;11.65;;;;;;;;;;5066564;28;20596;-60
2023/10/01 04:38:29;;;;;;;13.45;11.60;;;;;;;;;;5042033;28;20032;-60
2023/10/01 04:40:54;;;;;;;14.38;11.82;;;;;;;;;;5045356;28;20067;-60
2023/10/01 04:43:20;;;;;;;18.63;12.23;;;;;;;;;;5056488;28;20031;-60
2023/10/01 04:45:46;;;;;;;16.88;12.18;;;;;;;;;;5048995;28;20093;-60
2023/10/01 04:48:45;;;;;;;15.45;12.52;;;;;;;;;;5052799;28;20034;-60
2023/10/01 04:51:09;;;;;;;13.52;11.45;;;;;;;;;;5048080;28;20050;-60
2023/10/01 04:53:35;;;;;;;14.98;11.90;;;;;;;;;;5077091;27;20059;-59
2023/10/01 04:56:00;;;;;;;17.48;11.38;;;;;;;;;;5061907;28;20126;-60
2023/10/01 04:58:37;;;;;;;18.23;11.85;;;;;;;;;;5058480;28;20034;-60
2023/10/01 05:01:07;;;;;;;13.73;11.52;;;;;;;;;;5060903;28;20028;-60
2023/10/01 05:03:44;;;;;;;14.65;12.13;;;;;;;;;;5049921;28;20031;-60
2023/10/01 05:06:13;;;;;;;17.52;12.02;;;;;;;;;;5061929;28;20103;-60
2023/10/01 05:08:42;;;;;;;15.23;12.07;;;;;;;;;;5057993;28;20055;-60
2023/10/01 05:11:11;;;;;;;14.63;11.98;;;;;;;;;;5049015;28;20771;-60
2023/10/01 05:13:42;;;;;;;17.02;12.63;;;;;;;;;;5041089;28;20668;-60
2023/10/01 05:16:14;;;;;;;15.85;12.43;;;;;;;;;;5058706;28;20035;-60
2023/10/01 05:18:40;;;;;;;15.15;12.48;;;;;;;;;;5043505;28;20032;-60
2023/10/01 05:21:12;;;;;;;14.63;12.48;;;;;;;;;;5064408;28;20016;-60
2023/10/01 05:23:37;;;;;;;14.73;11.90;;;;;;;;;;5062922;28;20536;-60
2023/10/01 05:26:05;;;;;;;17.13;12.52;;;;;;;;;;5057741;28;20127;-60
2023/10/01 05:28:36;;;;;;;16.92;12.57;;;;;;;;;;5068639;28;20119;-60
2023/10/01 05:31:05;;;;;;;15.27;12.18;;;;;;;;;;5073642;28;20051;-62
2023/10/01 05:33:33;;;;;;;13.52;12.07;;;;;;;;;;5066359;28;20115;-60
2023/10/01 05:36:00;;;;;;;16.40;12.90;;;;;;;;;;5067688;28;20100;-59
2023/10/01 05:38:33;;;;;;;15.77;13.05;;;;;;;;;;5069728;28;20221;-60
2023/10/01 05:40:59;;;;;;;16.73;12.52;;;;;;;;;;5073160;28;20008;-60
2023/10/01 05:43:29;;;;;;;15.18;12.45;;;;;;;;;;5068137;28;20031;-60
2023/10/01 05:46:01;;;;;;;17.10;13.27;;;;;;;;;;5048200;28;20021;-59
2023/10/01 05:48:28;;;;;;;14.90;12.57;;;;;;;;;;5073326;28;20041;-59
2023/10/01 05:50:57;;;;;;;16.15;12.63;;;;;;;;;;5064978;28;20859;-59
2023/10/01 05:53:22;;;;;;;14.82;11.80;;;;;;;;;;5076571;28;20096;-59
2023/10/01 05:55:47;;;;;;;14.25;12.55;;;;;;;;;;5075004;28;20008;-59
2023/10/01 05:58:13;;;;;;;16.17;13.10;;;;;;;;;;5069998;28;20023;-60
2023/10/01 06:00:44;;;;;;;15.93;13.73;;;;;;;;;;5072558;28;20028;-60
2023/10/01 06:03:10;;;;;;;17.20;13.32;;;;;;;;;;5075140;27;20021;-59
2023/10/01 06:05:50;;;;;;;14.32;12.70;;;;;;;;;;5055537;28;20020;-59
2023/10/01 06:08:24;;;;;;;16.15;13.60;;;;;;;;;;5068751;28;20701;-59
2023/10/01 06:11:05;;;;;;;17.73;13.02;;;;;;;;;;5073378;28;21327;-59
2023/10/01 06:13:39;;;;;;;16.92;13.02;;;;;;;;;;5082461;28;20834;-60
2023/10/01 06:16:12;;;;;;;16.00;12.85;;;;;;;;;;5057308;28;20017;-60
2023/10/01 06:18:41;;;;;;;15.43;12.45;;;;;;;;;;5073682;28;20054;-59
2023/10/01 06:21:07;;;;;;;16.30;12.10;;;;;;;;;;5075901;28;20028;-60
2023/10/01 06:23:33;;;;;;;17.92;12.50;;;;;;;;;;5073348;28;20597;-59
2023/10/01 06:26:01;;;;;;;14.85;12.45;;;;;;;;;;5049739;28;20028;-59
2023/10/01 06:28:27;;;;;;;14.57;11.82;;;;;;;;;;5071097;28;20015;-60
2023/10/01 06:30:52;;;;;;;16.52;12.05;;;;;;;;;;5065261;28;20125;-59
2023/10/01 06:33:29;;;;;;;14.38;11.55;;;;;;;;;;5072583;28;20551;-60
2023/10/01 06:38:41;;;;;;;14.70;11.57;;;;;;;;;;5076231;28;20922;-59
2023/10/01 06:41:13;;;;;;;15.32;12.23;;;;;;;;;;5058785;28;20116;-59
2023/10/01 06:43:48;;;;;;;17.95;12.23;;;;;;;;;;5056787;28;20024;-60
2023/10/01 06:46:29;;;;;;;14.27;12.05;;;;;;;;;;5074338;28;20020;-59
2023/10/01 06:49:03;;;;;;;14.57;11.95;;;;;;;;;;5074739;28;20044;-60
2023/10/01 06:51:40;;;;;;;15.30;11.93;;;;;;;;;;5069498;28;20036;-59
2023/10/01 06:54:05;;;;;;;14.10;11.40;;;;;;;;;;5076417;28;20016;-60
2023/10/01 06:56:33;;;;;;;15.80;11.30;;;;;;;;;;5057355;28;20708;-59
2023/10/01 07:01:42;;;;;;;14.30;10.90;;;;;;;;;;5078612;28;20032;-60
2023/10/01 07:04:11;;;;;;;15.95;11.30;;;;;;;;;;5052831;28;20027;-59
2023/10/01 07:06:37;;;;;;;12.73;10.97;;;;;;;;;;5078257;28;20016;-60
2023/10/01 07:09:06;;;;;;;15.45;11.57;;;;;;;;;;5048716;28;20032;-59
2023/10/01 07:11:33;;;;;;;13.27;10.68;;;;;;;;;;5068533;28;20704;-59
2023/10/01 07:14:03;;;;;;;13.52;11.20;;;;;;;;;;5059963;28;20422;-57
2023/10/01 07:16:44;;;;;;;14.90;11.77;;;;;;;;;;5071802;28;20078;-58
2023/10/01 07:19:11;;;;;;;13.43;11.05;;;;;;;;;;5057596;28;20040;-59
2023/10/01 07:21:41;;;;;;;14.15;11.40;;;;;;;;;;5073667;28;20019;-60
2023/10/01 07:24:10;;;;;;;13.27;11.32;;;;;;;;;;5077436;28;20024;-59
2023/10/01 07:26:37;;;;;;;13.20;11.07;;;;;;;;;;5076196;28;20043;-59
2023/10/01 07:29:02;;;;;;;14.48;11.32;;;;;;;;;;5069609;28;20294;-59
2023/10/01 07:31:33;;;;;;;15.13;11.93;;;;;;;;;;5059797;28;20915;-58
2023/10/01 07:34:12;;;;;;;15.73;11.80;;;;;;;;;;5075814;28;20285;-61
2023/10/01 07:36:42;;;;;;;15.38;11.32;;;;;;;;;;5077406;28;20053;-62
2023/10/01 07:39:07;;;;;;;13.68;11.63;;;;;;;;;;5063155;28;20040;-59
2023/10/01 07:41:38;;;;;;;14.87;11.93;;;;;;;;;;5075491;28;20135;-59
2023/10/01 07:44:08;;;;;;;15.30;11.55;;;;;;;;;;5073410;28;20269;-59
2023/10/01 07:46:33;;;;;;;16.38;12.13;;;;;;;;;;5072337;28;20019;-59
2023/10/01 07:49:00;;;;;;;18.15;12.48;;;;;;;;;;5073387;28;20824;-58
2023/10/01 07:51:31;;;;;;;13.77;11.98;;;;;;;;;;5054497;28;20035;-58
2023/10/01 07:54:02;;;;;;;14.55;12.05;;;;;;;;;;5072381;28;20020;-58
2023/10/01 07:56:27;;;;;;;16.80;12.20;;;;;;;;;;5067530;28;20694;-59
2023/10/01 07:59:42;;;;;;;18.08;12.43;;;;;;;;;;5067007;28;20036;-59
2023/10/01 08:01:42;;;;;;;14.43;12.00;;;;;;;;;;5063152;28;20437;-58
2023/10/01 08:06:56;;;;;;;14.65;12.18;;;;;;;;;;5067933;28;20105;-58
2023/10/01 08:09:21;;;;;;;14.23;12.25;;;;;;;;;;5064983;28;20036;-58
2023/10/01 08:12:04;;;;;;;16.57;13.10;;;;;;;;;;5068774;28;20027;-58
2023/10/01 08:14:33;;;;;;;15.43;12.43;;;;;;;;;;5069133;28;20020;-60
2023/10/01 08:17:00;;;;;;;19.52;13.93;;;;;;;;;;5071713;28;20028;-58
2023/10/01 08:19:41;;;;;;;18.23;13.60;;;;;;;;;;5072116;28;21665;-58
2023/10/01 08:22:13;;;;;;;19.05;15.45;;;;;;;;;;5054339;28;20032;-59
2023/10/01 08:24:39;;;;;;;18.77;14.05;;;;;;;;;;5079649;28;20012;-59
2023/10/01 08:27:04;;;;;;;16.08;13.60;;;;;;;;;;5051870;28;20528;-60
2023/10/01 08:29:59;;;;;;;16.63;14.18;;;;;;;;;;5071222;28;20054;-60
2023/10/01 08:32:22;;;;;;;19.73;16.05;;;;;;;;;;5065356;28;20771;-59
2023/10/01 08:35:06;;;;;;;16.25;13.15;;;;;;;;;;5052284;28;20028;-59
2023/10/01 08:37:31;;;;;;;14.88;12.40;;;;;;;;;;5053884;28;20020;-60
2023/10/01 08:40:00;;;;;;;15.45;11.63;;;;;;;;;;5051019;28;20024;-59
2023/10/01 08:42:32;;;;;;;15.43;13.05;;;;;;;;;;5069786;28;20020;-59
2023/10/01 08:45:03;;;;;;;16.30;12.43;;;;;;;;;;5071755;28;20020;-59
2023/10/01 08:47:31;;;;;;;14.40;12.65;;;;;;;;;;5062131;28;20027;-59
2023/10/01 08:50:27;;;;;;;14.40;12.27;;;;;;;;;;5068692;28;20067;-60
2023/10/01 08:53:09;;;;;;;14.63;12.15;;;;;;;;;;5088449;28;20088;-59
2023/10/01 08:55:35;;;;;;;17.63;12.95;;;;;;;;;;5083388;28;20019;-60
2023/10/01 08:58:14;;;;;;;14.88;12.68;;;;;;;;;;5068684;28;20544;-60
2023/10/01 09:00:48;;;;;;;;;;;;;;;;;;5072789;28;20039;-60
2023/10/01 09:03:26;;;;;;;15.65;12.70;;;;;;;;;;5082350;28;19953;-60
2023/10/01 09:06:01;;;;;;;16.40;12.70;;;;;;;;;;5095086;27;20076;-59
2023/10/01 09:08:31;;;;;;;17.30;14.85;;;;;;;;;;5089850;27;20046;-64
2023/10/01 09:10:56;;;;;;;18.95;13.98;;;;;;;;;;5068182;28;20073;-63
2023/10/01 09:13:30;;;;;;;14.43;12.80;;;;;;;;;;5094915;27;21168;-63
2023/10/01 09:16:07;;;;;;;15.98;13.93;;;;;;;;;;5092398;27;20518;-63
2023/10/01 09:18:37;;;;;;;17.08;13.30;;;;;;;;;;5094445;27;20032;-63
2023/10/01 09:21:09;;;;;;;15.90;12.45;;;;;;;;;;5091831;27;20066;-62
2023/10/01 09:23:56;;;;;;;14.60;11.77;;;;;;;;;;5089504;27;20024;-63
2023/10/01 09:26:53;;;;;;;13.57;11.57;;;;;;;;;;5097432;27;20099;-62
2023/10/01 09:29:22;;;;;;;15.77;11.27;;;;;;;;;;5090846;28;20122;-63
2023/10/01 09:31:52;;;;;;;13.07;11.35;;;;;;;;;;5074041;27;20511;-62
2023/10/01 09:34:31;;;;;;;13.75;10.43;;;;;;;;;;5096756;27;20070;-63
2023/10/01 09:36:56;;;;;;;14.13;10.83;;;;;;;;;;5075285;27;20043;-63
2023/10/01 09:39:34;;;;;;;13.75;10.77;;;;;;;;;;5079080;28;20396;-63
2023/10/01 09:42:02;;;;;;;12.65;10.05;;;;;;;;;;5096852;27;20031;-60
2023/10/01 09:44:31;;;;;;;12.82;9.93;;;;;;;;;;5086770;27;20128;-60
2023/10/01 09:47:07;;;;;;;12.68;10.88;;;;;;;;;;5087532;28;20064;-60
2023/10/01 09:49:33;;;;;;;13.65;10.98;;;;;;;;;;5083462;27;20075;-59
2023/10/01 09:52:01;;;;;;;13.93;10.52;;;;;;;;;;5067322;28;20024;-60
2023/10/01 09:54:28;;;;;;;14.95;11.45;;;;;;;;;;5071826;27;20027;-61
2023/10/01 09:56:55;;;;;;;14.20;11.50;;;;;;;;;;5084955;27;20131;-60
2023/10/01 09:59:20;;;;;;;14.60;11.02;;;;;;;;;;5082720;27;20835;-61
2023/10/01 10:01:45;;;;;;;12.77;9.82;;;;;;;;;;5083109;27;20019;-61
2023/10/01 10:04:11;;;;;;;15.40;11.17;;;;;;;;;;5066924;28;20024;-60
2023/10/01 10:06:41;;;;;;;15.65;12.68;;;;;;;;;;5085714;27;21001;-60
2023/10/01 10:09:25;;;;;;;15.48;12.90;;;;;;;;;;5073592;28;20188;-61
2023/10/01 10:11:50;;;;;;;16.88;13.15;;;;;;;;;;5065275;27;21184;-61
2023/10/01 10:14:25;;;;;;;14.35;11.90;;;;;;;;;;5082359;27;20031;-61
2023/10/01 10:19:56;;;;;;;18.73;14.73;;;;;;;;;;5080250;27;20132;-60
2023/10/01 10:22:25;;;;;;;18.30;15.80;;;;;;;;;;5083999;27;20740;-60
2023/10/01 10:25:10;;;;;;;20.07;15.53;;;;;;;;;;5083386;27;20011;-63
2023/10/01 10:27:35;;;;;;;16.65;13.98;;;;;;;;;;5082675;28;20679;-59
2023/10/01 10:30:05;;;;;;;16.63;12.57;;;;;;;;;;5071198;28;20051;-60
2023/10/01 10:32:44;;;;;;;16.58;13.98;;;;;;;;;;5070032;27;20266;-60
2023/10/01 10:35:14;;;;;;;14.10;11.82;;;;;;;;;;5084409;28;20022;-60
2023/10/01 10:37:44;;;;;;;14.88;12.18;;;;;;;;;;5073011;28;20024;-61
2023/10/01 10:40:22;;;;;;;16.73;13.15;;;;;;;;;;5083553;27;20074;-61
2023/10/01 10:42:47;;;;;;;18.25;13.45;;;;;;;;;;5069698;27;20102;-59
2023/10/01 10:45:22;;;;;;;17.10;12.63;;;;;;;;;;5083236;27;20431;-60
2023/10/01 10:48:08;;;;;;;18.50;14.93;;;;;;;;;;5072205;28;20028;-59
2023/10/01 10:50:48;;;;;;;20.83;15.18;;;;;;;;;;5062741;28;20047;-60
2023/10/01 10:53:19;;;;;;;17.67;15.10;;;;;;;;;;5080367;27;20054;-59
2023/10/01 10:55:53;;;;;;;19.35;15.30;;;;;;;;;;5082814;28;20107;-60
2023/10/01 10:58:19;;;;;;;23.08;16.65;;;;;;;;;;5082607;27;20035;-60
2023/10/01 11:00:48;;;;;;;22.08;16.40;;;;;;;;;;5082506;28;20106;-59
2023/10/01 11:03:16;;;;;;;20.08;16.77;;;;;;;;;;5080399;27;20019;-59
2023/10/01 11:05:51;;;;;;;23.67;18.08;;;;;;;;;;5072561;27;20103;-59
2023/10/01 11:08:25;;;;;;;20.95;16.48;;;;;;;;;;5063769;28;20027;-60
2023/10/01 11:10:54;;;;;;;22.15;17.05;;;;;;;;;;5071767;28;20049;-60
2023/10/01 11:13:34;;;;;;;21.48;17.55;;;;;;;;;;5074750;27;20144;-60
2023/10/01 11:16:13;;;;;;;24.38;17.15;;;;;;;;;;5081081;27;20073;-60
2023/10/01 11:18:41;;;;;;;19.73;17.30;;;;;;;;;;5082328;28;20016;-59
2023/10/01 11:21:10;;;;;;;21.35;17.27;;;;;;;;;;5083252;27;20027;-60
2023/10/01 11:23:38;;;;;;;23.13;18.00;;;;;;;;;;5074587;27;20048;-59
2023/10/01 11:26:06;;;;;;;23.23;17.58;;;;;;;;;;5082005;27;20019;-60
2023/10/01 11:28:41;;;;;;;22.30;18.20;;;;;;;;;;5065129;28;20016;-58
2023/10/01 11:31:28;;;;;;;20.63;17.88;;;;;;;;;;5059558;28;20700;-60
2023/10/01 11:34:04;;;;;;;22.05;18.17;;;;;;;;;;5079617;27;20077;-59
2023/10/01 11:36:35;;;;;;;21.77;18.63;;;;;;;;;;5079748;28;20015;-59
2023/10/01 11:39:03;;;;;;;23.83;19.10;;;;;;;;;;5083265;28;20020;-60
2023/10/01 11:41:40;;;;;;;21.52;18.10;;;;;;;;;;5078713;27;20069;-59
2023/10/01 11:44:06;;;;;;;22.23;18.13;;;;;;;;;;5083646;27;20024;-60
2023/10/01 11:49:15;;;;;;;19.92;17.67;;;;;;;;;;5071878;27;20145;-59
2023/10/01 11:51:45;;;;;;;22.42;17.85;;;;;;;;;;5050340;28;20020;-60
2023/10/01 11:54:11;;;;;;;;;;;;;;;;;;5043404;28;20020;-60
2023/10/01 11:56:40;;;;;;;23.42;18.27;;;;;;;;;;5062712;28;19916;-60
2023/10/01 11:59:08;;;;;;;23.92;18.52;;;;;;;;;;5047167;28;20098;-59
2023/10/01 12:01:43;;;;;;;23.17;18.67;;;;;;;;;;5062095;28;20021;-59
2023/10/01 12:04:08;;;;;;;22.63;18.38;;;;;;;;;;5044612;28;20383;-60
2023/10/01 12:06:34;;;;;;;25.57;18.03;;;;;;;;;;5055282;28;20024;-59
2023/10/01 12:09:02;;;;;;;25.05;18.23;;;;;;;;;;5063110;28;20418;-61
2023/10/01 12:11:27;;;;;;;20.55;17.35;;;;;;;;;;5061951;28;20020;-59
2023/10/01 12:14:06;;;;;;;21.20;18.90;;;;;;;;;;5044504;28;20783;-59
2023/10/01 12:16:39;;;;;;;21.30;17.83;;;;;;;;;;5060732;28;20299;-60
2023/10/01 12:19:24;;;;;;;23.75;18.40;;;;;;;;;;5062067;28;20284;-60
2023/10/01 12:22:05;;;;;;;24.80;18.88;;;;;;;;;;5045615;28;20013;-60
2023/10/01 12:24:39;;;;;;;26.95;19.63;;;;;;;;;;5055389;28;20566;-60
2023/10/01 12:27:07;;;;;;;24.80;18.15;;;;;;;;;;5061763;28;20127;-59
2023/10/01 12:29:42;;;;;;;24.80;19.25;;;;;;;;;;5046361;28;20024;-60
2023/10/01 12:32:08;;;;;;;23.33;19.30;;;;;;;;;;5061941;28;20012;-60
2023/10/01 12:34:34;;;;;;;20.65;17.63;;;;;;;;;;5052781;28;20016;-60
2023/10/01 12:37:07;;;;;;;22.85;18.50;;;;;;;;;;5072682;28;20154;-60
2023/10/01 12:39:35;;;;;;;21.15;17.67;;;;;;;;;;5071462;28;20016;-59
2023/10/01 12:42:04;;;;;;;20.90;17.75;;;;;;;;;;5076075;28;21298;-59
2023/10/01 12:44:30;;;;;;;22.13;18.05;;;;;;;;;;5044155;28;20009;-60
2023/10/01 12:47:00;;;;;;;20.73;18.40;;;;;;;;;;5054139;28;20020;-59
2023/10/01 12:49:26;;;;;;;23.95;19.00;;;;;;;;;;5058808;28;20105;-60
2023/10/01 12:51:54;;;;;;;20.38;17.15;;;;;;;;;;5087974;28;20023;-59
2023/10/01 12:54:25;;;;;;;22.20;17.50;;;;;;;;;;5068643;28;20023;-60
2023/10/01 12:57:03;;;;;;;25.75;17.83;;;;;;;;;;5078597;28;20027;-60
2023/10/01 12:59:42;;;;;;;23.38;18.55;;;;;;;;;;5097293;28;20028;-60
2023/10/01 13:02:22;;;;;;;18.85;16.85;;;;;;;;;;5074317;28;20193;-61
2023/10/01 13:05:16;;;;;;;19.70;17.60;;;;;;;;;;5071041;28;20280;-59
2023/10/01 13:07:40;;;;;;;;;;;;;;;;;;5090804;28;20100;-59
2023/10/01 13:10:08;;;;;;;19.50;15.82;;;;;;;;;;5095390;28;19918;-59
2023/10/01 13:12:49;;;;;;;20.33;16.52;;;;;;;;;;5066281;28;20038;-59
2023/10/01 13:15:25;;;;;;;22.63;18.08;;;;;;;;;;5092997;28;20120;-60
2023/10/01 13:18:00;;;;;;;19.88;17.77;;;;;;;;;;5093056;28;20020;-59
2023/10/01 13:20:58;;;;;;;21.05;17.17;;;;;;;;;;5068396;28;20028;-59
2023/10/01 13:23:31;;;;;;;20.27;17.92;;;;;;;;;;5084855;28;20035;-59
2023/10/01 13:26:06;;;;;;;19.48;16.55;;;;;;;;;;5082458;28;20016;-60
2023/10/01 13:28:50;;;;;;;17.85;15.93;;;;;;;;;;5087661;28;20175;-60
2023/10/01 13:34:21;;;;;;;18.55;15.40;;;;;;;;;;5084420;28;20039;-60
2023/10/01 13:36:50;;;;;;;18.60;15.10;;;;;;;;;;5068184;28;20794;-61
2023/10/01 14:09:48;;;;;;;19.17;14.82;;;;;;;;;;5073267;28;20040;-59
2023/10/01 14:15:03;;;;;;;18.88;16.27;;;;;;;;;;5072920;28;20030;-61
2023/10/01 14:17:28;;;;;;;19.90;15.50;;;;;;;;;;5053740;28;20112;-60
2023/10/01 14:19:55;;;;;;;18.27;16.23;;;;;;;;;;5056541;28;20096;-61
2023/10/01 14:22:21;;;;;;;20.33;15.80;;;;;;;;;;5075744;28;20020;-61
2023/10/01 14:24:52;;;;;;;18.90;15.90;;;;;;;;;;5056314;28;20035;-60
2023/10/01 14:27:29;;;;;;;18.98;15.45;;;;;;;;;;5073053;28;20026;-60
2023/10/01 14:30:01;;;;;;;19.23;16.15;;;;;;;;;;5069646;28;20777;-60
2023/10/01 14:32:35;;;;;;;18.10;15.55;;;;;;;;;;5066083;28;20012;-60
2023/10/01 14:35:14;;;;;;;16.58;14.50;;;;;;;;;;5049284;28;20020;-61
2023/10/01 14:37:39;;;;;;;17.75;15.25;;;;;;;;;;5068230;28;20016;-61
2023/10/01 14:40:13;;;;;;;18.55;14.60;;;;;;;;;;5072906;28;20089;-60
2023/10/01 14:42:39;;;;;;;17.02;14.45;;;;;;;;;;5069956;28;20085;-60
2023/10/01 14:45:05;;;;;;;17.70;15.25;;;;;;;;;;5071576;28;20028;-60
2023/10/01 14:47:31;;;;;;;19.38;14.65;;;;;;;;;;5056008;28;20047;-60
2023/10/01 14:49:56;;;;;;;19.05;15.38;;;;;;;;;;5068018;28;20048;-61
2023/10/01 14:52:23;;;;;;;17.63;15.35;;;;;;;;;;5049733;28;20044;-62
2023/10/01 14:54:48;;;;;;;18.33;15.52;;;;;;;;;;5067955;28;20734;-60
2023/10/01 14:57:16;;;;;;;18.77;15.57;;;;;;;;;;5077137;28;20431;-59
2023/10/01 14:59:43;;;;;;;19.58;16.38;;;;;;;;;;5077540;28;20332;-60
2023/10/01 15:02:15;;;;;;;17.45;14.30;;;;;;;;;;5077326;28;20850;-61
2023/10/01 15:04:40;;;;;;;16.88;15.07;;;;;;;;;;5073600;28;20065;-60
2023/10/01 15:07:05;;;;;;;20.03;14.40;;;;;;;;;;5068054;28;20577;-61
2023/10/01 15:09:32;;;;;;;19.27;14.53;;;;;;;;;;5074423;28;20111;-60
2023/10/01 15:11:57;;;;;;;15.88;14.18;;;;;;;;;;5064093;28;20258;-60
2023/10/01 15:14:26;;;;;;;16.30;14.52;;;;;;;;;;5068338;28;20046;-61
2023/10/01 15:16:55;;;;;;;18.63;15.30;;;;;;;;;;5070832;28;20027;-60
2023/10/01 15:19:25;;;;;;;17.70;14.15;;;;;;;;;;5065252;28;20119;-61
2023/10/01 15:21:50;;;;;;;17.25;13.85;;;;;;;;;;5070992;28;20062;-61
2023/10/01 15:24:19;;;;;;;16.63;14.65;;;;;;;;;;5055992;28;20391;-61
2023/10/01 15:26:49;;;;;;;18.33;13.75;;;;;;;;;;5075876;28;20012;-60
2023/10/01 15:29:15;;;;;;;18.48;14.85;;;;;;;;;;5073995;28;20054;-61
2023/10/01 15:31:51;;;;;;;16.63;14.88;;;;;;;;;;5051849;28;20518;-60
2023/10/01 15:34:23;;;;;;;17.00;14.32;;;;;;;;;;5074855;28;20024;-60
2023/10/01 15:36:48;;;;;;;17.73;14.32;;;;;;;;;;5070294;28;20255;-65
2023/10/01 15:42:15;;;;;;;18.42;14.60;;;;;;;;;;5072266;28;20036;-63
2023/10/01 15:44:44;;;;;;;18.77;14.82;;;;;;;;;;5080440;28;20813;-64